createdAt,value
2022-12-26T00:00:00.749Z,5.9
2022-12-26T00:05:00.962Z,5.9
2022-12-26T00:10:00.713Z,5.9
2022-12-26T00:15:00.738Z,5.9
2022-12-26T00:20:00.706Z,5.9
2022-12-26T00:25:00.775Z,5.9
2022-12-26T00:30:00.770Z,5.8
2022-12-26T00:35:00.790Z,5.8
2022-12-26T00:40:00.774Z,5.8
2022-12-26T00:45:00.731Z,5.7
2022-12-26T00:50:12.117Z,5.7
2022-12-26T00:55:00.745Z,5.7
2022-12-26T01:00:00.747Z,5.7
2022-12-26T01:05:00.744Z,5.7
2022-12-26T01:10:00.707Z,5.7
2022-12-26T01:15:00.751Z,5.7
2022-12-26T01:20:00.745Z,5.7
2022-12-26T01:25:00.693Z,5.6
2022-12-26T01:30:00.721Z,5.5
2022-12-26T01:35:00.707Z,5.4
2022-12-26T01:40:00.465Z,5.4
2022-12-26T01:45:00.701Z,5.4
2022-12-26T01:50:00.707Z,5.4
2022-12-26T01:55:00.785Z,5.3
2022-12-26T02:00:00.669Z,5.3
2022-12-26T02:05:00.700Z,5.4
2022-12-26T02:10:00.695Z,5.3
2022-12-26T02:15:00.707Z,5.3
2022-12-26T02:20:00.728Z,5.3
2022-12-26T02:25:00.696Z,5.3
2022-12-26T02:30:00.685Z,5.3
2022-12-26T02:35:00.695Z,5.3
2022-12-26T02:40:00.859Z,5.3
2022-12-26T02:45:00.819Z,5.3
2022-12-26T02:50:00.829Z,5.3
2022-12-26T02:55:00.688Z,5.2
2022-12-26T03:00:00.795Z,5.3
2022-12-26T03:05:00.717Z,5.4
2022-12-26T03:10:00.725Z,5.3
2022-12-26T03:15:00.702Z,5.3
2022-12-26T03:20:00.725Z,5.3
2022-12-26T03:25:00.719Z,5.4
2022-12-26T03:30:00.699Z,5.6
2022-12-26T03:35:00.709Z,5.6
2022-12-26T03:40:00.789Z,5.5
2022-12-26T03:45:00.705Z,5.6
2022-12-26T03:50:00.775Z,5.5
2022-12-26T03:55:00.736Z,5.5
2022-12-26T04:00:00.766Z,5.6
2022-12-26T04:05:00.691Z,5.6
2022-12-26T04:10:00.721Z,5.7
2022-12-26T04:15:00.688Z,5.7
2022-12-26T04:20:00.735Z,5.7
2022-12-26T04:25:00.699Z,6.3
2022-12-26T04:30:00.709Z,6.2
2022-12-26T04:35:00.689Z,6.1
2022-12-26T04:40:00.725Z,6
2022-12-26T04:45:00.857Z,6
2022-12-26T04:50:00.702Z,5.9
2022-12-26T04:55:00.689Z,5.9
2022-12-26T05:00:00.748Z,5.9
2022-12-26T05:05:00.719Z,5.9
2022-12-26T05:10:00.703Z,6
2022-12-26T05:15:00.709Z,6.2
2022-12-26T05:20:00.719Z,6.4
2022-12-26T05:25:00.757Z,6.3
2022-12-26T05:30:00.703Z,6.2
2022-12-26T05:35:00.726Z,6.1
2022-12-26T05:40:00.718Z,6
2022-12-26T05:45:00.707Z,5.9
2022-12-26T05:50:00.811Z,5.9
2022-12-26T05:55:00.710Z,5.9
2022-12-26T06:00:00.713Z,5.9
2022-12-26T06:05:00.798Z,5.9
2022-12-26T06:10:00.744Z,5.9
2022-12-26T06:15:00.735Z,5.9
2022-12-26T06:20:00.825Z,5.8
2022-12-26T06:25:00.758Z,5.8
2022-12-26T06:30:00.670Z,5.8
2022-12-26T06:35:00.700Z,5.7
2022-12-26T06:40:00.735Z,5.7
2022-12-26T06:45:00.720Z,5.7
2022-12-26T06:50:00.703Z,5.7
2022-12-26T06:55:00.473Z,5.7
2022-12-26T07:00:00.740Z,5.6
2022-12-26T07:05:00.724Z,5.7
2022-12-26T07:10:00.769Z,5.9
2022-12-26T07:15:01.751Z,6
2022-12-26T07:20:00.757Z,6
2022-12-26T07:25:00.738Z,6.3
2022-12-26T07:30:00.724Z,6.2
2022-12-26T07:35:00.791Z,6.3
2022-12-26T07:40:00.730Z,6.3
2022-12-26T07:45:00.706Z,6.3
2022-12-26T07:50:00.725Z,6.4
2022-12-26T07:55:00.728Z,6.5
2022-12-26T08:00:00.750Z,6.5
2022-12-26T08:05:00.675Z,6.5
2022-12-26T08:10:00.745Z,6.5
2022-12-26T08:15:00.695Z,6.7
2022-12-26T08:20:00.729Z,6.8
2022-12-26T08:25:00.721Z,6.8
2022-12-26T08:30:01.109Z,6.9
2022-12-26T08:35:00.695Z,7
2022-12-26T08:40:00.681Z,7
2022-12-26T08:45:00.703Z,7
2022-12-26T08:50:00.734Z,7.1
2022-12-26T08:55:00.725Z,7.2
2022-12-26T09:00:00.734Z,7.3
2022-12-26T09:05:00.707Z,7.4
2022-12-26T09:10:00.753Z,7.5
2022-12-26T09:15:00.704Z,7.5
2022-12-26T09:20:00.789Z,7.6
2022-12-26T09:25:00.453Z,7.8
2022-12-26T09:30:00.733Z,8
2022-12-26T09:35:00.819Z,8
2022-12-26T09:40:00.667Z,8.2
2022-12-26T09:45:00.673Z,8
2022-12-26T09:50:00.844Z,7.9
2022-12-26T09:55:00.747Z,7.8
2022-12-26T10:00:00.727Z,7.9
2022-12-26T10:05:00.751Z,7.8
2022-12-26T10:10:00.773Z,7.8
2022-12-26T10:15:00.750Z,7.7
2022-12-26T10:20:00.719Z,7.7
2022-12-26T10:25:00.701Z,7.8
2022-12-26T10:30:00.739Z,7.9
2022-12-26T10:35:00.801Z,7.9
2022-12-26T10:40:00.715Z,7.9
2022-12-26T10:45:00.725Z,7.9
2022-12-26T10:50:00.480Z,8
2022-12-26T10:55:27.660Z,8
2022-12-26T11:00:00.865Z,8
2022-12-26T11:05:33.061Z,8
2022-12-26T11:10:00.699Z,8.1
2022-12-26T11:15:00.693Z,8.1
2022-12-26T11:20:00.706Z,8.2
2022-12-26T11:25:00.790Z,8.1
2022-12-26T11:30:00.744Z,8.2
2022-12-26T11:35:00.731Z,8
2022-12-26T11:40:00.752Z,8.1
2022-12-26T11:45:00.723Z,8
2022-12-26T11:50:00.734Z,8
2022-12-26T11:55:00.732Z,8.1
2022-12-26T12:00:00.698Z,8
2022-12-26T12:05:00.764Z,8
2022-12-26T12:10:00.774Z,8
2022-12-26T12:15:00.731Z,8
2022-12-26T12:20:00.781Z,7.9
2022-12-26T12:25:00.755Z,8
2022-12-26T12:30:00.739Z,8
2022-12-26T12:35:00.746Z,8
2022-12-26T12:40:00.759Z,8
2022-12-26T12:45:00.769Z,8
2022-12-26T12:50:00.799Z,8
2022-12-26T12:55:00.668Z,8
2022-12-26T13:00:00.797Z,8
2022-12-26T13:05:00.827Z,8
2022-12-26T13:10:00.757Z,8
2022-12-26T13:15:00.829Z,8
2022-12-26T13:20:02.434Z,8
2022-12-26T13:25:00.720Z,8
2022-12-26T13:30:00.756Z,8
2022-12-26T13:35:00.761Z,7.9
2022-12-26T13:40:00.733Z,7.9
2022-12-26T13:45:00.743Z,8
2022-12-26T13:50:00.721Z,8
2022-12-26T13:55:00.768Z,8
2022-12-26T14:00:00.735Z,7.9
2022-12-26T14:05:00.802Z,7.9
2022-12-26T14:10:00.793Z,7.9
2022-12-26T14:15:00.748Z,7.9
2022-12-26T14:20:00.763Z,7.9
2022-12-26T14:25:00.813Z,7.9
2022-12-26T14:30:00.804Z,7.9
2022-12-26T14:35:00.704Z,7.9
2022-12-26T14:40:00.799Z,7.8
2022-12-26T14:45:00.766Z,7.8
2022-12-26T14:50:00.738Z,7.8
2022-12-26T14:55:00.787Z,7.8
2022-12-26T15:00:03.569Z,7.8
2022-12-26T15:05:00.754Z,7.9
2022-12-26T15:10:00.657Z,7.8
2022-12-26T15:15:00.664Z,7.8
2022-12-26T15:20:00.801Z,7.8
2022-12-26T15:25:20.152Z,7.8
2022-12-26T15:30:00.761Z,7.8
2022-12-26T15:35:00.770Z,7.8
2022-12-26T15:40:00.835Z,7.8
2022-12-26T15:45:00.767Z,7.8
2022-12-26T15:50:00.733Z,7.8
2022-12-26T15:55:00.708Z,7.7
2022-12-26T16:00:00.771Z,7.7
2022-12-26T16:05:00.775Z,7.8
2022-12-26T16:10:00.785Z,7.7
2022-12-26T16:15:00.723Z,7.7
2022-12-26T16:20:00.778Z,7.7
2022-12-26T16:25:00.729Z,7.6
2022-12-26T16:30:02.061Z,7.5
2022-12-26T16:35:00.690Z,7.5
2022-12-26T16:40:00.774Z,7.6
2022-12-26T16:45:00.785Z,7.6
2022-12-26T16:50:00.695Z,7.6
2022-12-26T16:55:00.774Z,7.6
2022-12-26T17:00:00.801Z,7.6
2022-12-26T17:05:00.741Z,7.5
2022-12-26T17:10:00.737Z,7.5
2022-12-26T17:15:00.730Z,7.6
2022-12-26T17:20:00.950Z,7.5
2022-12-26T17:25:00.720Z,7.5
2022-12-26T17:30:00.786Z,7.6
2022-12-26T17:35:00.791Z,7.6
2022-12-26T17:40:02.728Z,7.6
2022-12-26T17:45:00.733Z,7.6
2022-12-26T17:50:00.715Z,7.6
2022-12-26T17:55:00.881Z,7.7
2022-12-26T18:00:00.852Z,7.6
2022-12-26T18:05:00.869Z,7.6
2022-12-26T18:10:00.748Z,7.6
2022-12-26T18:15:02.297Z,7.5
2022-12-26T18:20:00.757Z,7.5
2022-12-26T18:25:00.803Z,7.4
2022-12-26T18:30:00.818Z,7.4
2022-12-26T18:35:00.778Z,7.3
2022-12-26T18:40:00.822Z,7.3
2022-12-26T18:45:00.770Z,7.2
2022-12-26T18:50:00.770Z,7.1
2022-12-26T18:55:00.842Z,7.1
2022-12-26T19:00:00.744Z,7.1
2022-12-26T19:05:00.727Z,7.1
2022-12-26T19:10:00.784Z,7.1
2022-12-26T19:15:00.761Z,7
2022-12-26T19:20:00.771Z,7
2022-12-26T19:25:00.475Z,6.9
2022-12-26T19:30:00.803Z,6.9
2022-12-26T19:35:00.718Z,7
2022-12-26T19:40:00.794Z,6.9
2022-12-26T19:45:00.763Z,6.9
2022-12-26T19:50:00.736Z,7
2022-12-26T19:55:00.821Z,7
2022-12-26T20:00:00.720Z,7
2022-12-26T20:05:00.752Z,6.9
2022-12-26T20:10:00.745Z,7
2022-12-26T20:15:00.704Z,7
2022-12-26T20:20:00.687Z,7
2022-12-26T20:25:00.779Z,7.1
2022-12-26T20:30:00.753Z,7
2022-12-26T20:35:00.805Z,7
2022-12-26T20:40:00.773Z,7.1
2022-12-26T20:45:00.841Z,7.1
2022-12-26T20:50:00.783Z,7.1
2022-12-26T20:55:00.760Z,7.1
2022-12-26T21:00:00.760Z,7.1
2022-12-26T21:05:00.811Z,7.2
2022-12-26T21:10:00.739Z,7.2
2022-12-26T21:15:00.764Z,7.3
2022-12-26T21:20:00.777Z,7.3
2022-12-26T21:25:00.793Z,7.3
2022-12-26T21:30:00.832Z,7.3
2022-12-26T21:35:00.754Z,7.3
2022-12-26T21:40:00.768Z,7.3
2022-12-26T21:45:00.715Z,7.3
2022-12-26T21:50:00.829Z,7.3
2022-12-26T21:55:00.790Z,7.3
2022-12-26T22:00:00.726Z,7.3
2022-12-26T22:05:00.783Z,7.3
2022-12-26T22:10:00.749Z,7.2
2022-12-26T22:15:00.825Z,7.3
2022-12-26T22:20:00.767Z,7.3
2022-12-26T22:25:00.775Z,7.3
2022-12-26T22:30:00.742Z,7.3
2022-12-26T22:35:00.769Z,7.3
2022-12-26T22:40:00.729Z,7.3
2022-12-26T22:45:00.779Z,7.3
2022-12-26T22:50:00.711Z,7.3
2022-12-26T22:55:00.722Z,7.3
2022-12-26T23:00:08.996Z,7.3
2022-12-26T23:05:00.774Z,7.2
2022-12-26T23:10:00.760Z,7.2
2022-12-26T23:15:00.758Z,7.3
2022-12-26T23:20:00.781Z,7.3
2022-12-26T23:25:00.776Z,7.2
2022-12-26T23:30:00.746Z,7.1
2022-12-26T23:35:00.807Z,7.1
2022-12-26T23:40:00.768Z,7.1
2022-12-26T23:45:00.788Z,7.1
2022-12-26T23:50:00.740Z,7.2
2022-12-26T23:55:00.743Z,7.1
